Time;durP1;ratioP1;P1;durP2;ratioP2;P2;SDS_P1;SDS_P2;PMS_P1;PMS_P2;Temp;Humidity;BMP_temperature;BMP_pressure;BME280_temperature;BME280_humidity;BME280_pressure;Samples;Min_cycle;Max_cycle;Signal;HPM_P1;HPM_P2
2023/03/22 00:01:47;;;;;;;11.48;5.40;;;;;;;;;;5064908;28;20028;-72
2023/03/22 00:04:12;;;;;;;10.30;4.18;;;;;;;;;;5063460;28;20547;-72
2023/03/22 00:06:37;;;;;;;8.75;4.35;;;;;;;;;;5065099;28;20429;-72
2023/03/22 00:09:03;;;;;;;10.35;4.75;;;;;;;;;;5063745;28;20048;-71
2023/03/22 00:11:28;;;;;;;10.68;4.38;;;;;;;;;;5064430;28;20485;-72
2023/03/22 00:13:54;;;;;;;6.53;3.75;;;;;;;;;;5063123;28;20032;-71
2023/03/22 00:16:20;;;;;;;10.90;4.32;;;;;;;;;;5064430;28;20025;-72
2023/03/22 00:18:46;;;;;;;13.40;4.68;;;;;;;;;;5064081;28;20020;-72
2023/03/22 00:21:14;;;;;;;6.57;3.22;;;;;;;;;;5065115;28;20024;-72
2023/03/22 00:23:40;;;;;;;7.03;3.53;;;;;;;;;;5064415;28;20131;-72
2023/03/22 00:26:06;;;;;;;11.57;4.55;;;;;;;;;;5062204;28;20147;-72
2023/03/22 00:28:31;;;;;;;6.22;3.53;;;;;;;;;;5064164;28;20033;-72
2023/03/22 00:30:59;;;;;;;10.40;4.60;;;;;;;;;;5064697;28;20025;-72
2023/03/22 00:33:24;;;;;;;11.35;3.85;;;;;;;;;;5064544;28;20017;-72
2023/03/22 00:35:56;;;;;;;9.32;4.35;;;;;;;;;;5064003;28;20040;-72
2023/03/22 00:38:21;;;;;;;9.88;4.03;;;;;;;;;;5062865;28;20090;-71
2023/03/22 00:40:46;;;;;;;11.50;4.65;;;;;;;;;;5062778;28;20036;-72
2023/03/22 00:43:12;;;;;;;7.07;4.35;;;;;;;;;;5064472;28;20037;-72
2023/03/22 00:45:39;;;;;;;9.60;5.15;;;;;;;;;;5063467;28;20590;-71
2023/03/22 00:48:07;;;;;;;11.35;4.60;;;;;;;;;;5062755;28;20044;-71
2023/03/22 00:50:32;;;;;;;9.50;4.25;;;;;;;;;;5062992;28;20028;-71
2023/03/22 00:52:57;;;;;;;9.10;4.38;;;;;;;;;;5062648;28;20036;-72
2023/03/22 00:55:23;;;;;;;7.65;4.32;;;;;;;;;;5063403;28;20566;-72
2023/03/22 00:57:48;;;;;;;8.65;4.13;;;;;;;;;;5061915;28;20049;-72
2023/03/22 01:00:15;;;;;;;8.45;3.95;;;;;;;;;;5064480;28;20028;-72
2023/03/22 01:02:41;;;;;;;8.73;3.60;;;;;;;;;;5063859;28;20120;-72
2023/03/22 01:05:07;;;;;;;9.80;4.05;;;;;;;;;;5062364;28;20044;-72
2023/03/22 01:07:32;;;;;;;9.20;3.65;;;;;;;;;;5062299;28;20762;-72
2023/03/22 01:09:58;;;;;;;7.32;3.45;;;;;;;;;;5061233;28;20495;-72
2023/03/22 01:12:23;;;;;;;8.13;4.28;;;;;;;;;;5062503;28;20029;-72
2023/03/22 01:14:48;;;;;;;8.13;4.03;;;;;;;;;;5062317;28;20041;-72
2023/03/22 01:17:14;;;;;;;9.75;4.45;;;;;;;;;;5062144;28;20461;-72
2023/03/22 01:19:39;;;;;;;9.30;4.22;;;;;;;;;;5064311;28;20052;-72
2023/03/22 01:22:06;;;;;;;9.70;4.05;;;;;;;;;;5062478;28;20039;-72
2023/03/22 01:24:31;;;;;;;9.18;3.88;;;;;;;;;;5063592;28;20598;-72
2023/03/22 01:26:57;;;;;;;8.88;4.10;;;;;;;;;;5061938;28;20128;-71
2023/03/22 01:29:23;;;;;;;9.07;3.40;;;;;;;;;;5064084;28;20229;-71
2023/03/22 01:31:49;;;;;;;6.57;3.53;;;;;;;;;;5060557;28;20533;-71
2023/03/22 01:34:14;;;;;;;9.75;3.38;;;;;;;;;;5063726;28;20032;-72
2023/03/22 01:36:40;;;;;;;9.27;3.95;;;;;;;;;;5063529;28;20533;-72
2023/03/22 01:39:05;;;;;;;7.68;3.78;;;;;;;;;;5064954;28;20045;-72
2023/03/22 01:41:34;;;;;;;7.97;3.28;;;;;;;;;;5067309;28;20722;-72
2023/03/22 01:44:13;;;;;;;7.82;3.20;;;;;;;;;;5060019;28;20126;-72
2023/03/22 01:46:39;;;;;;;9.20;3.38;;;;;;;;;;5067367;28;20024;-72
2023/03/22 01:49:10;;;;;;;10.05;3.53;;;;;;;;;;5065964;28;20052;-72
2023/03/22 01:51:37;;;;;;;9.15;3.20;;;;;;;;;;5067215;28;20078;-72
2023/03/22 01:54:08;;;;;;;6.25;3.72;;;;;;;;;;5066760;28;20075;-72
2023/03/22 01:56:36;;;;;;;10.40;3.40;;;;;;;;;;5064260;28;20063;-72
2023/03/22 01:59:02;;;;;;;10.95;3.83;;;;;;;;;;5064670;28;20049;-71
2023/03/22 02:01:28;;;;;;;8.77;3.92;;;;;;;;;;5065033;28;20032;-72
2023/03/22 02:03:58;;;;;;;8.27;3.10;;;;;;;;;;5066914;28;20036;-72
2023/03/22 02:06:25;;;;;;;8.93;3.33;;;;;;;;;;5064579;28;20020;-72
2023/03/22 02:08:56;;;;;;;8.40;3.50;;;;;;;;;;5066338;28;20055;-72
2023/03/22 02:11:32;;;;;;;5.18;2.88;;;;;;;;;;5082326;28;20101;-72
2023/03/22 02:14:21;;;;;;;5.57;2.70;;;;;;;;;;5065697;28;20098;-72
2023/03/22 02:17:00;;;;;;;8.15;3.15;;;;;;;;;;5063734;28;20033;-72
2023/03/22 02:19:44;;;;;;;6.82;3.00;;;;;;;;;;5066903;28;20060;-72
2023/03/22 02:22:20;;;;;;;7.43;2.72;;;;;;;;;;5063665;28;20037;-71
2023/03/22 02:25:04;;;;;;;9.93;3.33;;;;;;;;;;5065679;28;20027;-72
2023/03/22 02:27:48;;;;;;;;;;;;;;;;;;5066776;28;20869;-72
2023/03/22 02:30:47;;;;;;;6.78;2.13;;;;;;;;;;5066190;28;19913;-72
2023/03/22 02:33:35;;;;;;;7.10;2.90;;;;;;;;;;5066786;28;20059;-72
2023/03/22 02:36:17;;;;;;;5.72;2.78;;;;;;;;;;5066024;28;20033;-72
2023/03/22 02:39:12;;;;;;;5.97;2.70;;;;;;;;;;5066358;28;20060;-72
2023/03/22 02:42:05;;;;;;;6.07;2.63;;;;;;;;;;5060570;28;20056;-72
2023/03/22 02:44:33;;;;;;;6.40;2.63;;;;;;;;;;5059382;28;20041;-72
2023/03/22 02:47:53;;;;;;;4.60;2.38;;;;;;;;;;5060601;28;20032;-72
2023/03/22 02:50:27;;;;;;;6.40;2.22;;;;;;;;;;5045010;28;20040;-72
2023/03/22 02:53:08;;;;;;;5.13;2.20;;;;;;;;;;5044782;28;20052;-72
2023/03/22 02:55:39;;;;;;;7.22;2.40;;;;;;;;;;5045763;28;20524;-72
2023/03/22 02:58:21;;;;;;;7.32;2.30;;;;;;;;;;5045688;28;20045;-72
2023/03/22 03:00:49;;;;;;;5.85;2.15;;;;;;;;;;5046184;28;20021;-72
2023/03/22 03:03:18;;;;;;;6.18;2.30;;;;;;;;;;5063786;28;20012;-72
2023/03/22 03:05:51;;;;;;;9.25;2.65;;;;;;;;;;5063204;28;20029;-71
2023/03/22 03:08:19;;;;;;;4.75;2.20;;;;;;;;;;5063714;28;20032;-72
2023/03/22 03:10:45;;;;;;;7.53;1.90;;;;;;;;;;5065284;28;20054;-72
2023/03/22 03:13:20;;;;;;;4.10;1.80;;;;;;;;;;5063725;28;20027;-72
2023/03/22 03:15:51;;;;;;;10.68;2.40;;;;;;;;;;5065390;28;20029;-72
2023/03/22 03:18:19;;;;;;;5.40;2.35;;;;;;;;;;5065111;28;20024;-72
2023/03/22 03:21:06;;;;;;;7.95;2.05;;;;;;;;;;5065144;28;20029;-72
2023/03/22 03:23:48;;;;;;;6.20;2.13;;;;;;;;;;5062420;28;20042;-72
2023/03/22 03:26:19;;;;;;;6.03;1.92;;;;;;;;;;5063502;28;20118;-71
2023/03/22 03:29:00;;;;;;;4.05;1.75;;;;;;;;;;5063841;28;20139;-71
2023/03/22 03:31:40;;;;;;;5.05;1.77;;;;;;;;;;5064519;28;20863;-71
2023/03/22 03:34:41;;;;;;;5.47;1.55;;;;;;;;;;5044693;28;20581;-71
2023/03/22 03:37:14;;;;;;;4.75;2.10;;;;;;;;;;5039900;28;20041;-72
2023/03/22 03:39:49;;;;;;;5.75;1.98;;;;;;;;;;5045391;28;20028;-71
2023/03/22 03:42:16;;;;;;;5.18;1.85;;;;;;;;;;5045293;28;20138;-72
2023/03/22 03:44:42;;;;;;;5.97;2.10;;;;;;;;;;5044927;28;20037;-71
2023/03/22 03:47:09;;;;;;;6.95;2.25;;;;;;;;;;5043632;28;20029;-72
2023/03/22 03:49:35;;;;;;;6.28;1.80;;;;;;;;;;5040883;28;20029;-72
2023/03/22 03:52:02;;;;;;;3.13;1.90;;;;;;;;;;5044571;28;20021;-72
2023/03/22 03:54:27;;;;;;;6.90;2.30;;;;;;;;;;5044748;28;20043;-72
2023/03/22 03:56:53;;;;;;;4.13;2.03;;;;;;;;;;5044451;28;20411;-72
2023/03/22 03:59:19;;;;;;;7.75;2.20;;;;;;;;;;5043493;28;20060;-72
2023/03/22 04:01:48;;;;;;;8.05;2.50;;;;;;;;;;5045803;28;20092;-71
2023/03/22 04:04:15;;;;;;;7.38;2.00;;;;;;;;;;5062961;28;20036;-72
2023/03/22 04:06:41;;;;;;;4.93;2.13;;;;;;;;;;5065283;28;20125;-72
2023/03/22 04:09:07;;;;;;;5.10;2.15;;;;;;;;;;5064928;28;20127;-72
2023/03/22 04:11:32;;;;;;;10.55;3.20;;;;;;;;;;5063437;28;20041;-72
2023/03/22 04:13:57;;;;;;;4.97;2.35;;;;;;;;;;5062834;28;20037;-71
2023/03/22 04:16:23;;;;;;;9.13;3.13;;;;;;;;;;5065050;28;20036;-72
2023/03/22 04:18:49;;;;;;;2.95;1.85;;;;;;;;;;5064139;28;20040;-72
2023/03/22 04:21:15;;;;;;;9.30;2.63;;;;;;;;;;5064903;28;20107;-72
2023/03/22 04:23:40;;;;;;;5.07;2.08;;;;;;;;;;5062830;28;20105;-72
2023/03/22 04:26:06;;;;;;;6.70;1.98;;;;;;;;;;5064308;28;20542;-72
2023/03/22 04:28:32;;;;;;;6.60;2.10;;;;;;;;;;5063307;28;20040;-72
2023/03/22 04:30:58;;;;;;;9.82;2.72;;;;;;;;;;5064594;28;20029;-72
2023/03/22 04:33:25;;;;;;;14.43;2.72;;;;;;;;;;5064642;28;20016;-72
2023/03/22 04:35:55;;;;;;;6.28;2.60;;;;;;;;;;5064202;28;20052;-72
2023/03/22 04:38:21;;;;;;;6.28;2.40;;;;;;;;;;5080129;28;20490;-72
2023/03/22 04:40:46;;;;;;;7.13;2.50;;;;;;;;;;5063759;28;20523;-72
2023/03/22 04:43:12;;;;;;;7.97;2.97;;;;;;;;;;5064800;28;20067;-72
2023/03/22 04:45:38;;;;;;;8.10;2.50;;;;;;;;;;5064548;28;20024;-72
2023/03/22 04:48:03;;;;;;;7.68;2.92;;;;;;;;;;5064337;28;20037;-72
2023/03/22 04:50:28;;;;;;;7.43;2.60;;;;;;;;;;5064049;28;20051;-71
2023/03/22 04:52:54;;;;;;;7.72;2.15;;;;;;;;;;5062879;28;20722;-72
2023/03/22 04:55:19;;;;;;;6.72;2.72;;;;;;;;;;5064341;28;20395;-71
2023/03/22 04:57:45;;;;;;;6.25;2.40;;;;;;;;;;5063615;28;20052;-71
2023/03/22 05:00:10;;;;;;;6.90;2.30;;;;;;;;;;5064350;28;20017;-71
2023/03/22 05:02:39;;;;;;;6.03;2.72;;;;;;;;;;5063840;28;20105;-71
2023/03/22 05:05:06;;;;;;;7.43;2.40;;;;;;;;;;5062789;28;20091;-71
2023/03/22 05:07:31;;;;;;;10.52;2.60;;;;;;;;;;5064125;28;20029;-71
2023/03/22 05:09:57;;;;;;;7.97;2.30;;;;;;;;;;5063805;28;20047;-72
2023/03/22 05:12:22;;;;;;;9.73;2.55;;;;;;;;;;5064126;28;20089;-72
2023/03/22 05:14:47;;;;;;;8.32;2.20;;;;;;;;;;5067680;28;20039;-71
2023/03/22 05:17:13;;;;;;;4.53;2.13;;;;;;;;;;5065780;28;20032;-72
2023/03/22 05:19:38;;;;;;;5.70;1.67;;;;;;;;;;5066928;28;20090;-72
2023/03/22 05:22:03;;;;;;;7.75;1.60;;;;;;;;;;5068079;28;20123;-72
2023/03/22 05:24:29;;;;;;;7.55;1.85;;;;;;;;;;5066785;28;20089;-72
2023/03/22 05:26:55;;;;;;;8.90;1.83;;;;;;;;;;5066326;28;20086;-72
2023/03/22 05:29:21;;;;;;;10.80;1.98;;;;;;;;;;5066213;28;20033;-72
2023/03/22 05:31:47;;;;;;;5.43;1.55;;;;;;;;;;5065785;28;20892;-72
2023/03/22 05:34:12;;;;;;;6.68;1.42;;;;;;;;;;5067329;28;20105;-72
2023/03/22 05:36:37;;;;;;;8.57;1.50;;;;;;;;;;5067940;28;20025;-71
2023/03/22 05:39:03;;;;;;;5.28;1.33;;;;;;;;;;5066366;28;20122;-72
2023/03/22 05:41:32;;;;;;;4.15;1.63;;;;;;;;;;5067422;28;20082;-72
2023/03/22 05:43:58;;;;;;;2.83;1.05;;;;;;;;;;5082399;28;20033;-72
2023/03/22 05:46:23;;;;;;;5.70;1.20;;;;;;;;;;5065860;28;20035;-72
2023/03/22 05:48:48;;;;;;;4.78;1.20;;;;;;;;;;5065812;28;20101;-72
2023/03/22 05:51:16;;;;;;;6.43;1.75;;;;;;;;;;5067035;28;20481;-72
2023/03/22 05:53:43;;;;;;;5.35;1.10;;;;;;;;;;5067046;28;20527;-72
2023/03/22 05:56:12;;;;;;;2.35;1.13;;;;;;;;;;5060769;28;20055;-71
2023/03/22 05:58:39;;;;;;;8.20;1.35;;;;;;;;;;5066089;28;20094;-72
2023/03/22 06:01:10;;;;;;;14.73;1.80;;;;;;;;;;5067301;28;20032;-72
2023/03/22 06:03:36;;;;;;;12.45;1.80;;;;;;;;;;5066019;28;20406;-71
2023/03/22 06:06:05;;;;;;;6.15;1.70;;;;;;;;;;5065475;28;20040;-71
2023/03/22 06:08:31;;;;;;;3.67;1.73;;;;;;;;;;5064201;28;20036;-71
2023/03/22 06:10:56;;;;;;;2.58;1.10;;;;;;;;;;5062692;28;20039;-71
2023/03/22 06:13:22;;;;;;;4.00;2.10;;;;;;;;;;5064097;28;20126;-71
2023/03/22 06:15:47;;;;;;;8.57;2.33;;;;;;;;;;5066932;28;20122;-71
2023/03/22 06:18:12;;;;;;;6.18;1.90;;;;;;;;;;5065895;28;20032;-71
2023/03/22 06:20:38;;;;;;;10.02;2.20;;;;;;;;;;5065797;28;20041;-71
2023/03/22 06:23:04;;;;;;;2.78;1.65;;;;;;;;;;5066884;28;20036;-71
2023/03/22 06:25:30;;;;;;;3.45;1.30;;;;;;;;;;5066051;28;20031;-71
2023/03/22 06:27:55;;;;;;;5.55;1.38;;;;;;;;;;5066605;28;20025;-72
2023/03/22 06:30:20;;;;;;;4.07;1.15;;;;;;;;;;5053091;28;20025;-72
2023/03/22 06:32:45;;;;;;;6.25;1.98;;;;;;;;;;5061707;28;20040;-72
2023/03/22 06:35:11;;;;;;;4.88;1.48;;;;;;;;;;5062834;28;20040;-72
2023/03/22 06:37:36;;;;;;;3.47;1.88;;;;;;;;;;5063269;28;20056;-72
2023/03/22 06:40:02;;;;;;;2.63;0.75;;;;;;;;;;5064483;28;20470;-72
2023/03/22 06:42:29;;;;;;;7.82;1.50;;;;;;;;;;5066231;28;20024;-72
2023/03/22 06:44:55;;;;;;;5.00;1.90;;;;;;;;;;5065295;28;20040;-72
2023/03/22 06:47:20;;;;;;;6.10;1.70;;;;;;;;;;5065413;28;20074;-72
2023/03/22 06:49:45;;;;;;;6.63;1.92;;;;;;;;;;5065314;28;20036;-71
2023/03/22 06:52:11;;;;;;;5.25;1.83;;;;;;;;;;5065611;28;20143;-72
2023/03/22 06:54:36;;;;;;;5.07;1.70;;;;;;;;;;5062915;28;20036;-72
2023/03/22 06:57:01;;;;;;;9.30;1.40;;;;;;;;;;5056352;28;20076;-72
2023/03/22 06:59:27;;;;;;;2.08;0.95;;;;;;;;;;5065848;28;20127;-72
2023/03/22 07:01:52;;;;;;;3.28;1.30;;;;;;;;;;5060742;28;20044;-72
2023/03/22 07:04:18;;;;;;;7.18;1.88;;;;;;;;;;5063693;28;20029;-72
2023/03/22 07:06:44;;;;;;;6.68;1.88;;;;;;;;;;5059598;28;20028;-72
2023/03/22 07:09:09;;;;;;;7.65;1.88;;;;;;;;;;5064146;28;20041;-71
2023/03/22 07:11:34;;;;;;;5.65;1.38;;;;;;;;;;5062519;28;20037;-72
2023/03/22 07:14:00;;;;;;;5.05;1.05;;;;;;;;;;5065445;28;20040;-71
2023/03/22 07:16:25;;;;;;;4.53;1.63;;;;;;;;;;5063229;28;20045;-72
2023/03/22 07:18:51;;;;;;;4.60;1.60;;;;;;;;;;5063473;28;20044;-71
2023/03/22 07:21:16;;;;;;;5.18;1.65;;;;;;;;;;5061718;28;20028;-71
2023/03/22 07:23:41;;;;;;;6.80;1.48;;;;;;;;;;5063135;28;20040;-72
2023/03/22 07:26:07;;;;;;;10.38;1.40;;;;;;;;;;5063645;28;20124;-72
2023/03/22 07:28:32;;;;;;;6.25;1.65;;;;;;;;;;5065246;28;20114;-72
2023/03/22 07:31:03;;;;;;;7.75;1.70;;;;;;;;;;5063830;28;20032;-72
2023/03/22 07:33:29;;;;;;;5.18;1.50;;;;;;;;;;5064374;28;20024;-71
2023/03/22 07:35:54;;;;;;;5.97;1.80;;;;;;;;;;5063531;28;20036;-72
2023/03/22 07:38:19;;;;;;;4.65;1.33;;;;;;;;;;5064397;28;20064;-72
2023/03/22 07:40:45;;;;;;;7.47;1.50;;;;;;;;;;5064750;28;20044;-71
2023/03/22 07:43:12;;;;;;;5.35;1.48;;;;;;;;;;5064598;28;20105;-71
2023/03/22 07:45:38;;;;;;;5.97;1.20;;;;;;;;;;5061039;28;20103;-71
2023/03/22 07:48:03;;;;;;;4.68;1.30;;;;;;;;;;5062909;28;20078;-72
2023/03/22 07:50:28;;;;;;;7.70;2.08;;;;;;;;;;5059997;28;20052;-71
2023/03/22 07:52:54;;;;;;;3.13;1.08;;;;;;;;;;5064226;28;20036;-71
2023/03/22 07:55:19;;;;;;;9.40;1.50;;;;;;;;;;5064584;28;20052;-72
2023/03/22 07:57:45;;;;;;;9.20;1.90;;;;;;;;;;5060682;28;20063;-72
2023/03/22 08:00:11;;;;;;;4.18;1.25;;;;;;;;;;5062905;28;20483;-71
2023/03/22 08:02:37;;;;;;;5.60;1.80;;;;;;;;;;5060084;28;20795;-72
2023/03/22 08:05:03;;;;;;;2.65;1.35;;;;;;;;;;5062329;28;20059;-71
2023/03/22 08:07:30;;;;;;;3.78;1.35;;;;;;;;;;5063776;28;20037;-71
2023/03/22 08:09:56;;;;;;;7.25;1.70;;;;;;;;;;5063125;28;20028;-71
2023/03/22 08:12:21;;;;;;;5.35;0.98;;;;;;;;;;5063248;28;20097;-70
2023/03/22 08:14:49;;;;;;;9.05;1.92;;;;;;;;;;5062457;28;20051;-71
2023/03/22 08:17:16;;;;;;;3.55;1.33;;;;;;;;;;5063265;28;20036;-71
2023/03/22 08:19:41;;;;;;;4.30;1.30;;;;;;;;;;5064129;28;20127;-71
2023/03/22 08:22:07;;;;;;;7.93;1.60;;;;;;;;;;5062358;28;20190;-71
2023/03/22 08:24:32;;;;;;;5.63;1.20;;;;;;;;;;5062652;28;20024;-71
2023/03/22 08:26:57;;;;;;;4.32;2.33;;;;;;;;;;5064412;28;20033;-71
2023/03/22 08:29:23;;;;;;;6.63;1.27;;;;;;;;;;5064075;28;20384;-71
2023/03/22 08:31:49;;;;;;;7.15;1.80;;;;;;;;;;5062931;28;20140;-71
2023/03/22 08:34:14;;;;;;;4.75;1.60;;;;;;;;;;5064109;28;20024;-71
2023/03/22 08:36:40;;;;;;;7.47;1.77;;;;;;;;;;5063933;28;20082;-71
2023/03/22 08:39:07;;;;;;;6.28;1.42;;;;;;;;;;5062492;28;20040;-71
2023/03/22 08:41:33;;;;;;;5.55;1.25;;;;;;;;;;5062446;28;20073;-71
2023/03/22 08:43:58;;;;;;;10.13;1.80;;;;;;;;;;5063700;28;20041;-71
2023/03/22 08:46:23;;;;;;;3.33;1.40;;;;;;;;;;5064171;28;20400;-71
2023/03/22 08:48:52;;;;;;;5.95;1.55;;;;;;;;;;5064560;28;20059;-71
2023/03/22 08:51:19;;;;;;;5.30;1.60;;;;;;;;;;5067470;28;20078;-72
2023/03/22 08:53:45;;;;;;;4.68;1.42;;;;;;;;;;5067529;28;20033;-71
2023/03/22 08:56:11;;;;;;;3.53;1.60;;;;;;;;;;5067443;28;20119;-71
2023/03/22 08:58:37;;;;;;;4.38;2.50;;;;;;;;;;5066624;28;20039;-71
2023/03/22 09:01:02;;;;;;;12.05;1.40;;;;;;;;;;5067512;28;20020;-71
2023/03/22 09:03:28;;;;;;;4.25;1.52;;;;;;;;;;5066111;28;20020;-71
2023/03/22 09:05:53;;;;;;;3.38;1.42;;;;;;;;;;5066846;28;20035;-71
2023/03/22 09:08:18;;;;;;;4.68;2.08;;;;;;;;;;5064590;28;20697;-72
2023/03/22 09:10:50;;;;;;;2.90;1.33;;;;;;;;;;5067440;28;20040;-72
2023/03/22 09:13:16;;;;;;;3.47;1.30;;;;;;;;;;5067874;28;20029;-72
2023/03/22 09:15:43;;;;;;;4.97;1.40;;;;;;;;;;5067759;28;20457;-72
2023/03/22 09:18:08;;;;;;;9.18;1.73;;;;;;;;;;5065601;28;20036;-71
2023/03/22 09:20:34;;;;;;;5.25;1.30;;;;;;;;;;5067641;28;20036;-72
2023/03/22 09:22:59;;;;;;;1.60;1.17;;;;;;;;;;5065840;28;20037;-71
2023/03/22 09:25:24;;;;;;;7.65;1.70;;;;;;;;;;5067350;28;20036;-72
2023/03/22 09:27:50;;;;;;;9.02;1.80;;;;;;;;;;5066794;28;20082;-71
2023/03/22 09:30:15;;;;;;;5.03;1.55;;;;;;;;;;5067582;28;20024;-71
2023/03/22 09:32:40;;;;;;;5.40;1.48;;;;;;;;;;5065667;28;20032;-71
2023/03/22 09:35:06;;;;;;;7.45;1.20;;;;;;;;;;5066285;28;20039;-71
2023/03/22 09:37:31;;;;;;;7.35;1.20;;;;;;;;;;5065338;28;20032;-71
2023/03/22 09:39:57;;;;;;;3.17;1.20;;;;;;;;;;5066965;28;20027;-71
2023/03/22 09:42:37;;;;;;;8.77;1.60;;;;;;;;;;5067393;28;20414;-71
2023/03/22 09:45:05;;;;;;;10.00;2.45;;;;;;;;;;5066581;28;20032;-71
2023/03/22 09:47:38;;;;;;;3.38;1.30;;;;;;;;;;5066975;28;20557;-71
2023/03/22 09:50:18;;;;;;;8.17;1.47;;;;;;;;;;5065754;28;20059;-71
2023/03/22 09:52:44;;;;;;;4.15;1.10;;;;;;;;;;5066740;28;20275;-71
2023/03/22 09:55:36;;;;;;;6.45;1.42;;;;;;;;;;5064226;28;20039;-71
2023/03/22 09:58:33;;;;;;;3.55;1.10;;;;;;;;;;5045992;28;20051;-71
2023/03/22 10:01:03;;;;;;;2.15;1.00;;;;;;;;;;5051662;28;20075;-71
2023/03/22 10:03:56;;;;;;;6.50;1.25;;;;;;;;;;5065003;28;20012;-71
2023/03/22 10:06:24;;;;;;;2.03;0.75;;;;;;;;;;5087385;28;20049;-71
2023/03/22 10:09:14;;;;;;;5.28;1.65;;;;;;;;;;5057075;28;20523;-71
2023/03/22 10:11:50;;;;;;;8.32;1.40;;;;;;;;;;5060229;28;20574;-71
2023/03/22 10:14:32;;;;;;;7.22;1.48;;;;;;;;;;5063732;28;20040;-71
2023/03/22 10:17:04;;;;;;;3.70;1.27;;;;;;;;;;5063925;28;20036;-71
2023/03/22 10:19:40;;;;;;;6.97;1.42;;;;;;;;;;5066394;28;20111;-71
2023/03/22 10:22:08;;;;;;;2.88;1.35;;;;;;;;;;5066742;28;20039;-71
2023/03/22 10:24:36;;;;;;;2.88;1.10;;;;;;;;;;5094975;28;20047;-71
2023/03/22 10:27:02;;;;;;;5.80;1.40;;;;;;;;;;5059118;28;20193;-71
2023/03/22 10:29:34;;;;;;;6.22;1.80;;;;;;;;;;5062572;28;20407;-71
2023/03/22 10:32:18;;;;;;;5.05;1.80;;;;;;;;;;5064414;28;20082;-71
2023/03/22 10:34:43;;;;;;;;;;;;;;;;;;5065486;28;20130;-72
2023/03/22 10:37:19;;;;;;;3.83;1.60;;;;;;;;;;5062091;28;19964;-72
2023/03/22 10:39:48;;;;;;;2.78;1.55;;;;;;;;;;5055982;28;20024;-70
2023/03/22 10:42:20;;;;;;;3.47;1.60;;;;;;;;;;5063690;28;20016;-71
2023/03/22 10:45:06;;;;;;;6.90;2.45;;;;;;;;;;5065595;28;20045;-71
2023/03/22 10:47:40;;;;;;;5.72;2.63;;;;;;;;;;5064066;28;20028;-71
2023/03/22 10:50:14;;;;;;;3.80;2.03;;;;;;;;;;5065595;28;20032;-73
2023/03/22 10:52:56;;;;;;;8.07;2.20;;;;;;;;;;5065794;28;20036;-71
2023/03/22 10:55:23;;;;;;;5.25;1.80;;;;;;;;;;5062978;28;20866;-71
2023/03/22 10:58:11;;;;;;;6.10;2.08;;;;;;;;;;5060578;28;20040;-71
2023/03/22 11:00:37;;;;;;;5.45;1.80;;;;;;;;;;5066007;28;20031;-71
2023/03/22 11:03:05;;;;;;;6.40;1.90;;;;;;;;;;5069085;28;20036;-71
2023/03/22 11:05:30;;;;;;;4.07;1.73;;;;;;;;;;5094551;28;20035;-71
2023/03/22 11:07:57;;;;;;;6.82;2.28;;;;;;;;;;5055889;28;20036;-71
2023/03/22 11:10:33;;;;;;;5.93;2.00;;;;;;;;;;5060501;28;20119;-74
2023/03/22 11:13:08;;;;;;;8.80;2.72;;;;;;;;;;5063369;28;20078;-71
2023/03/22 11:15:38;;;;;;;7.05;2.85;;;;;;;;;;5061419;28;20086;-71
2023/03/22 11:18:13;;;;;;;5.45;2.40;;;;;;;;;;5062718;28;20086;-70
2023/03/22 11:20:52;;;;;;;6.03;2.65;;;;;;;;;;5063718;28;20024;-70
2023/03/22 11:23:19;;;;;;;11.80;2.88;;;;;;;;;;5064795;28;20060;-70
2023/03/22 11:25:47;;;;;;;6.15;2.38;;;;;;;;;;5057958;28;20031;-70
2023/03/22 11:28:41;;;;;;;7.53;2.40;;;;;;;;;;5064887;28;20070;-71
2023/03/22 11:31:14;;;;;;;5.22;3.00;;;;;;;;;;5063192;28;20121;-71
2023/03/22 11:34:00;;;;;;;7.85;2.20;;;;;;;;;;5062453;28;20398;-71
2023/03/22 11:36:26;;;;;;;5.68;2.28;;;;;;;;;;5064566;28;20033;-71
2023/03/22 11:38:57;;;;;;;5.25;2.20;;;;;;;;;;5064323;28;20587;-71
2023/03/22 11:41:25;;;;;;;7.72;2.65;;;;;;;;;;5063180;28;20037;-71
2023/03/22 11:43:54;;;;;;;6.18;2.58;;;;;;;;;;5062649;28;20094;-71
2023/03/22 11:46:19;;;;;;;1.95;1.40;;;;;;;;;;5062733;28;20135;-71
2023/03/22 11:48:48;;;;;;;8.18;2.67;;;;;;;;;;5062175;28;20103;-71
2023/03/22 11:51:16;;;;;;;9.48;2.83;;;;;;;;;;5064440;28;20490;-71
2023/03/22 11:53:43;;;;;;;7.85;2.85;;;;;;;;;;5063721;28;20028;-71
2023/03/22 11:56:11;;;;;;;9.00;2.88;;;;;;;;;;5064209;28;20124;-71
2023/03/22 11:58:37;;;;;;;8.40;2.92;;;;;;;;;;5060770;28;20040;-71
2023/03/22 12:01:03;;;;;;;11.13;2.47;;;;;;;;;;5062338;28;20017;-71
2023/03/22 12:03:36;;;;;;;6.72;2.33;;;;;;;;;;5064682;28;20410;-71
2023/03/22 12:06:04;;;;;;;5.18;2.05;;;;;;;;;;5063514;28;20051;-71
2023/03/22 12:09:09;;;;;;;10.32;2.88;;;;;;;;;;5063041;28;20080;-71
2023/03/22 12:11:46;;;;;;;8.18;3.10;;;;;;;;;;5060927;28;20033;-71
2023/03/22 12:14:39;;;;;;;7.00;2.50;;;;;;;;;;5062655;28;20075;-71
2023/03/22 12:17:12;;;;;;;4.93;3.05;;;;;;;;;;5059114;28;20042;-72
2023/03/22 12:20:05;;;;;;;8.88;3.20;;;;;;;;;;5063759;28;20064;-71
2023/03/22 12:22:34;;;;;;;7.60;3.20;;;;;;;;;;5063533;28;20120;-71
2023/03/22 12:25:02;;;;;;;6.43;2.78;;;;;;;;;;5064213;28;20035;-71
2023/03/22 12:27:27;;;;;;;6.78;2.60;;;;;;;;;;5063917;28;20074;-71
2023/03/22 12:30:00;;;;;;;5.75;2.70;;;;;;;;;;5061551;28;20044;-71
2023/03/22 12:32:32;;;;;;;3.25;1.83;;;;;;;;;;5063112;28;20041;-71
2023/03/22 12:34:58;;;;;;;6.40;2.03;;;;;;;;;;5064136;28;20561;-71
2023/03/22 12:37:27;;;;;;;7.53;2.13;;;;;;;;;;5062612;28;20114;-71
2023/03/22 12:39:58;;;;;;;7.40;2.70;;;;;;;;;;5061239;28;20686;-71
2023/03/22 12:42:32;;;;;;;7.55;2.40;;;;;;;;;;5063178;28;20114;-72
2023/03/22 12:45:03;;;;;;;8.88;2.42;;;;;;;;;;5063405;28;20078;-71
2023/03/22 12:47:40;;;;;;;7.10;2.50;;;;;;;;;;5062807;28;20523;-71
2023/03/22 12:50:47;;;;;;;7.00;2.53;;;;;;;;;;5063089;28;20162;-71
2023/03/22 12:53:16;;;;;;;6.10;3.22;;;;;;;;;;5013746;28;20044;-71
2023/03/22 12:55:42;;;;;;;4.63;2.50;;;;;;;;;;5056671;28;20581;-71
2023/03/22 12:58:09;;;;;;;9.30;2.95;;;;;;;;;;5063491;28;20060;-71
2023/03/22 13:00:58;;;;;;;5.22;2.22;;;;;;;;;;5057376;28;20445;-71
2023/03/22 13:03:36;;;;;;;5.43;2.58;;;;;;;;;;5060875;28;20047;-71
2023/03/22 13:06:26;;;;;;;4.25;2.28;;;;;;;;;;5063588;28;20040;-71
2023/03/22 13:09:15;;;;;;;5.03;1.55;;;;;;;;;;5063858;28;20533;-71
2023/03/22 13:12:08;;;;;;;7.10;2.65;;;;;;;;;;5061354;28;20519;-71
2023/03/22 13:14:51;;;;;;;4.75;2.70;;;;;;;;;;5063764;28;20141;-71
2023/03/22 13:17:39;;;;;;;5.63;2.60;;;;;;;;;;5061965;28;20512;-71
2023/03/22 13:20:10;;;;;;;6.65;2.10;;;;;;;;;;5063918;28;20040;-71
2023/03/22 13:22:36;;;;;;;6.68;2.38;;;;;;;;;;5063784;28;20036;-71
2023/03/22 13:25:15;;;;;;;7.15;2.85;;;;;;;;;;5063788;28;20089;-72
2023/03/22 13:27:50;;;;;;;7.22;2.83;;;;;;;;;;5063431;28;20048;-70
2023/03/22 13:30:21;;;;;;;6.70;2.30;;;;;;;;;;5062913;28;20051;-69
2023/03/22 13:32:50;;;;;;;6.40;2.35;;;;;;;;;;5061511;28;20090;-72
2023/03/22 13:35:23;;;;;;;5.45;2.50;;;;;;;;;;5064781;28;20047;-72
2023/03/22 13:37:50;;;;;;;4.40;2.50;;;;;;;;;;5066779;28;20568;-72
2023/03/22 13:40:28;;;;;;;5.53;3.00;;;;;;;;;;5061769;28;20522;-71
2023/03/22 13:43:09;;;;;;;6.30;2.80;;;;;;;;;;5056497;28;20119;-71
2023/03/22 13:45:34;;;;;;;5.57;2.53;;;;;;;;;;5044093;28;20063;-71
2023/03/22 13:48:11;;;;;;;9.75;3.13;;;;;;;;;;5050854;28;20072;-71
2023/03/22 13:50:38;;;;;;;10.85;3.28;;;;;;;;;;5052019;28;20122;-71
2023/03/22 13:53:13;;;;;;;10.20;3.22;;;;;;;;;;5061272;28;20044;-71
2023/03/22 13:55:44;;;;;;;6.45;3.20;;;;;;;;;;5063582;28;20033;-71
2023/03/22 13:58:31;;;;;;;5.82;3.33;;;;;;;;;;5065631;28;20114;-70
2023/03/22 14:00:57;;;;;;;6.97;3.47;;;;;;;;;;5045049;28;20036;-72
2023/03/22 14:03:29;;;;;;;6.63;3.33;;;;;;;;;;5062337;28;20017;-72
2023/03/22 14:06:14;;;;;;;16.35;3.75;;;;;;;;;;5061847;28;20494;-72
2023/03/22 14:08:43;;;;;;;8.88;3.30;;;;;;;;;;5060139;28;20032;-72
2023/03/22 14:11:20;;;;;;;7.30;3.28;;;;;;;;;;5065220;28;20032;-72
2023/03/22 14:14:11;;;;;;;7.05;3.38;;;;;;;;;;5063983;28;20094;-71
2023/03/22 14:16:50;;;;;;;8.30;3.67;;;;;;;;;;5061967;28;20949;-72
2023/03/22 14:19:23;;;;;;;7.28;3.13;;;;;;;;;;5065771;28;20032;-72
2023/03/22 14:21:55;;;;;;;7.72;3.38;;;;;;;;;;5063828;28;20111;-72
2023/03/22 14:24:23;;;;;;;5.88;3.10;;;;;;;;;;5064056;28;20035;-72
2023/03/22 14:26:52;;;;;;;5.82;3.42;;;;;;;;;;5065666;28;20457;-72
2023/03/22 14:29:21;;;;;;;9.15;3.58;;;;;;;;;;5065249;28;20064;-71
2023/03/22 14:32:04;;;;;;;5.93;3.00;;;;;;;;;;5064763;28;20728;-71
2023/03/22 14:34:33;;;;;;;10.23;4.28;;;;;;;;;;5064359;28;20479;-71
2023/03/22 14:37:01;;;;;;;8.32;3.10;;;;;;;;;;5065227;28;20032;-71
2023/03/22 14:39:33;;;;;;;5.75;2.75;;;;;;;;;;5064780;28;20033;-72
2023/03/22 14:42:03;;;;;;;6.65;3.17;;;;;;;;;;5065878;28;20035;-72
2023/03/22 14:44:38;;;;;;;9.05;4.07;;;;;;;;;;5065259;28;20040;-72
2023/03/22 14:47:14;;;;;;;5.78;3.38;;;;;;;;;;5063314;28;20032;-72
2023/03/22 14:49:42;;;;;;;8.38;3.22;;;;;;;;;;5056424;28;20036;-71
2023/03/22 14:52:21;;;;;;;12.85;4.13;;;;;;;;;;5064060;28;20410;-73
2023/03/22 14:54:48;;;;;;;10.38;2.90;;;;;;;;;;5063244;28;20059;-71
2023/03/22 14:57:15;;;;;;;8.23;3.45;;;;;;;;;;5066148;28;20043;-72
2023/03/22 14:59:43;;;;;;;6.75;3.05;;;;;;;;;;5061238;28;20415;-72
2023/03/22 15:02:33;;;;;;;5.20;2.35;;;;;;;;;;5066032;28;20036;-72